Time;durP1;ratioP1;P1;durP2;ratioP2;P2;SDS_P1;SDS_P2;PMS_P1;PMS_P2;Temp;Humidity;BMP_temperature;BMP_pressure;BME280_temperature;BME280_humidity;BME280_pressure;Samples;Min_cycle;Max_cycle;Signal;HPM_P1;HPM_P2
2023/02/25 00:02:09;;;;;;;2.10;1.90;;;;;;;8.40;96.47;97734.19;5115688;28;20077;-64
2023/02/25 00:04:40;;;;;;;2.17;1.93;;;;;;;8.39;96.95;97745.22;5115245;28;20075;-64
2023/02/25 00:07:10;;;;;;;3.33;2.20;;;;;;;8.37;96.24;97749.53;5115523;28;20501;-64
2023/02/25 00:09:38;;;;;;;5.18;2.70;;;;;;;8.36;96.23;97746.13;5115437;28;20036;-64
2023/02/25 00:12:07;;;;;;;2.55;1.95;;;;;;;8.37;96.17;97744.44;5115157;28;20517;-64
2023/02/25 00:14:36;;;;;;;4.95;4.03;;;;;;;8.37;96.25;97750.38;5115319;27;20044;-63
2023/02/25 00:17:05;;;;;;;2.53;2.33;;;;;;;8.39;96.54;97753.69;5115130;28;20032;-63
2023/02/25 00:19:34;;;;;;;3.60;3.25;;;;;;;8.42;96.33;97745.16;5114104;28;20474;-63
2023/02/25 00:22:05;;;;;;;3.67;3.08;;;;;;;8.43;95.85;97746.81;5115565;28;20139;-63
2023/02/25 00:24:33;;;;;;;3.83;2.38;;;;;;;8.45;96.33;97737.44;5114795;28;20093;-63
2023/02/25 00:27:02;;;;;;;2.22;2.00;;;;;;;8.43;95.92;97745.13;5114875;28;20040;-63
2023/02/25 00:29:31;;;;;;;3.93;2.17;;;;;;;8.43;96.25;97739.19;5115021;28;20126;-63
2023/02/25 00:32:00;;;;;;;2.35;2.15;;;;;;;8.42;96.11;97729.91;5113941;28;20059;-63
2023/02/25 00:34:29;;;;;;;2.95;2.53;;;;;;;8.41;96.07;97729.06;5114728;28;20040;-64
2023/02/25 00:36:58;;;;;;;2.95;1.65;;;;;;;8.42;96.15;97719.75;5114971;28;20047;-63
2023/02/25 00:39:40;;;;;;;3.47;3.17;;;;;;;8.44;96.43;97707.84;5115007;28;20492;-63
2023/02/25 00:42:10;;;;;;;4.20;3.22;;;;;;;8.44;95.93;97705.28;5113808;28;20098;-63
2023/02/25 00:44:39;;;;;;;5.38;3.42;;;;;;;8.44;96.17;97695.97;5114767;28;20050;-64
2023/02/25 00:47:08;;;;;;;3.25;2.95;;;;;;;8.43;96.47;97698.53;5113271;28;20040;-63
2023/02/25 00:49:38;;;;;;;9.98;3.47;;;;;;;8.41;96.46;97695.19;5113247;28;20107;-63
2023/02/25 00:52:07;;;;;;;1.57;1.47;;;;;;;8.38;96.13;97691.03;5114420;28;20028;-64
2023/02/25 00:54:38;;;;;;;4.20;2.70;;;;;;;8.36;96.22;97686.84;5113821;28;20477;-63
2023/02/25 00:57:07;;;;;;;3.33;3.13;;;;;;;8.34;95.45;97683.50;5114323;28;20359;-64
2023/02/25 00:59:36;;;;;;;4.45;3.40;;;;;;;8.31;95.76;97674.25;5114335;28;20108;-64
2023/02/25 01:02:05;;;;;;;1.35;1.25;;;;;;;8.26;95.66;97665.03;5113458;28;20036;-63
2023/02/25 01:04:34;;;;;;;5.00;2.90;;;;;;;8.24;96.23;97649.00;5114224;28;20131;-63
2023/02/25 01:07:02;;;;;;;3.28;2.95;;;;;;;8.24;95.99;97641.38;5114173;28;20127;-64
2023/02/25 01:09:33;;;;;;;2.72;2.28;;;;;;;8.22;96.12;97638.03;5114210;28;20097;-64
2023/02/25 01:12:05;;;;;;;1.60;1.50;;;;;;;8.20;95.79;97639.78;5114440;28;20550;-63
2023/02/25 01:14:34;;;;;;;16.42;3.92;;;;;;;8.18;95.47;97627.13;5113244;28;20412;-64
2023/02/25 01:17:04;;;;;;;3.65;2.58;;;;;;;8.19;95.92;97628.78;5113685;28;20496;-64
2023/02/25 01:19:33;;;;;;;5.53;4.35;;;;;;;8.19;95.04;97633.00;5114214;28;20038;-64
2023/02/25 01:22:02;;;;;;;4.85;3.35;;;;;;;8.13;95.57;97637.38;5112878;28;20460;-64
2023/02/25 01:24:33;;;;;;;4.63;3.08;;;;;;;8.13;95.64;97638.25;5113995;28;20075;-64
2023/02/25 01:27:05;;;;;;;4.10;3.72;;;;;;;8.10;95.57;97645.09;5114317;28;20048;-64
2023/02/25 01:29:39;;;;;;;3.83;3.47;;;;;;;8.10;95.98;97650.16;5114570;28;20135;-64
2023/02/25 01:32:13;;;;;;;3.90;2.63;;;;;;;8.10;95.33;97634.94;5120711;27;20051;-64
2023/02/25 01:34:42;;;;;;;5.50;2.80;;;;;;;8.12;96.11;97634.88;5120780;27;20101;-64
2023/02/25 01:37:11;;;;;;;4.43;3.87;;;;;;;8.11;95.80;97635.75;5119483;28;20043;-64
2023/02/25 01:39:40;;;;;;;4.93;3.90;;;;;;;8.12;95.62;97637.41;5120926;27;20035;-64
2023/02/25 01:42:14;;;;;;;6.47;4.43;;;;;;;8.14;95.10;97640.75;5121034;27;20043;-64
2023/02/25 01:45:16;;;;;;;3.80;3.00;;;;;;;8.12;95.51;97634.88;5120977;27;20036;-64
2023/02/25 01:47:49;;;;;;;4.28;3.88;;;;;;;8.11;95.45;97641.66;5116989;28;20073;-65
2023/02/25 01:50:18;;;;;;;2.40;1.98;;;;;;;8.08;95.81;97641.75;5120580;27;20052;-65
2023/02/25 01:52:47;;;;;;;5.60;3.13;;;;;;;8.08;95.08;97641.75;5120920;27;20035;-65
2023/02/25 01:55:16;;;;;;;4.53;2.92;;;;;;;8.08;94.97;97641.75;5120866;27;20100;-64
2023/02/25 01:57:47;;;;;;;2.67;1.73;;;;;;;8.10;96.22;97639.16;5119519;28;20090;-65
2023/02/25 02:00:17;;;;;;;5.38;3.45;;;;;;;8.05;95.67;97631.66;5120534;27;20358;-65
2023/02/25 02:02:49;;;;;;;6.65;2.92;;;;;;;8.06;96.18;97630.78;5120475;27;20039;-65
2023/02/25 02:05:18;;;;;;;1.30;1.20;;;;;;;8.05;95.56;97623.19;5120559;27;20049;-65
2023/02/25 02:07:48;;;;;;;4.60;3.28;;;;;;;8.03;94.92;97618.16;5119231;28;20058;-64
2023/02/25 02:10:18;;;;;;;3.77;3.47;;;;;;;8.04;95.54;97629.97;5120316;27;20040;-64
2023/02/25 02:12:49;;;;;;;4.85;4.25;;;;;;;8.06;95.86;97623.16;5120443;27;20051;-65
2023/02/25 02:15:18;;;;;;;7.22;4.30;;;;;;;8.05;95.79;97626.59;5120478;27;20051;-64
2023/02/25 02:17:55;;;;;;;1.90;1.73;;;;;;;8.03;95.09;97618.16;5119170;28;20040;-64
2023/02/25 02:20:27;;;;;;;2.78;2.58;;;;;;;8.04;95.62;97629.13;5120320;27;20067;-64
2023/02/25 02:23:21;;;;;;;3.15;2.85;;;;;;;8.05;95.07;97636.75;5119126;28;20070;-64
2023/02/25 02:26:12;;;;;;;4.53;3.38;;;;;;;8.05;95.34;97657.06;5120324;27;20512;-64
2023/02/25 02:29:03;;;;;;;3.05;1.85;;;;;;;8.04;95.48;97650.28;5120537;28;20047;-64
2023/02/25 02:31:41;;;;;;;2.88;2.67;;;;;;;8.03;95.33;97657.97;5120227;27;20051;-64
2023/02/25 02:34:24;;;;;;;1.27;1.17;;;;;;;7.95;94.71;97665.75;5120819;27;20493;-64
2023/02/25 02:37:04;;;;;;;1.35;1.25;;;;;;;7.94;95.48;97666.63;5121048;27;20370;-64
2023/02/25 02:39:50;;;;;;;0.68;0.68;;;;;;;7.90;94.76;97675.19;5120481;27;20043;-64
2023/02/25 02:42:31;;;;;;;3.03;1.55;;;;;;;7.80;94.90;97680.47;5116188;28;20036;-64
2023/02/25 02:45:07;;;;;;;0.30;0.30;;;;;;;7.76;94.51;97679.72;5116671;28;20047;-64
2023/02/25 02:47:39;;;;;;;0.73;0.50;;;;;;;7.72;94.43;97683.22;5116241;28;20071;-64
2023/02/25 02:50:12;;;;;;;1.00;0.88;;;;;;;7.71;94.18;97686.59;5116838;28;20062;-64
2023/02/25 02:52:46;;;;;;;0.40;0.40;;;;;;;7.65;93.89;97691.84;5116702;28;20131;-63
2023/02/25 02:55:22;;;;;;;0.30;0.30;;;;;;;7.61;93.51;97695.28;5115554;28;20043;-63
2023/02/25 02:57:58;;;;;;;0.98;0.85;;;;;;;7.57;93.15;97715.69;5116753;28;20485;-63
2023/02/25 03:00:30;;;;;;;1.42;1.33;;;;;;;7.54;93.14;97718.28;5115353;28;20040;-63
2023/02/25 03:03:08;;;;;;;0.50;0.50;;;;;;;7.49;93.03;97715.84;5116614;28;20039;-64
2023/02/25 03:05:41;;;;;;;1.55;1.45;;;;;;;7.48;92.29;97723.50;5116555;28;20092;-63
2023/02/25 03:08:14;;;;;;;0.85;0.85;;;;;;;7.47;93.06;97704.88;5116821;28;20146;-63
2023/02/25 03:10:45;;;;;;;0.45;0.45;;;;;;;7.33;92.53;97711.94;5116295;28;20044;-64
2023/02/25 03:13:15;;;;;;;1.10;1.05;;;;;;;7.24;91.77;97704.50;5116376;28;20043;-63
2023/02/25 03:15:44;;;;;;;;;;;;;;;7.20;91.50;97707.97;5116081;28;20439;-63
2023/02/25 03:18:22;;;;;;;0.65;0.65;;;;;;;7.18;92.30;97699.53;5116266;28;19920;-63
2023/02/25 03:20:54;;;;;;;0.30;0.30;;;;;;;7.16;91.13;97698.75;5114981;28;20108;-64
2023/02/25 03:23:29;;;;;;;0.40;0.40;;;;;;;7.15;90.76;97704.69;5116483;28;20097;-63
2023/02/25 03:26:10;;;;;;;0.77;0.77;;;;;;;7.13;90.94;97698.78;5116181;28;20092;-63
2023/02/25 03:28:41;;;;;;;0.52;0.52;;;;;;;7.14;90.90;97706.41;5116112;28;20048;-64
2023/02/25 03:31:20;;;;;;;1.13;0.60;;;;;;;7.13;90.07;97708.94;5116256;28;20040;-64
2023/02/25 03:33:55;;;;;;;3.97;2.22;;;;;;;7.11;90.41;97708.97;5114846;28;20516;-64
2023/02/25 03:36:28;;;;;;;0.60;0.60;;;;;;;7.13;90.20;97701.34;5114755;28;20501;-64
2023/02/25 03:39:01;;;;;;;0.47;0.47;;;;;;;7.14;89.56;97687.78;5115868;28;20055;-64
2023/02/25 03:41:34;;;;;;;4.85;1.80;;;;;;;7.13;90.08;97707.25;5114629;28;20067;-64
2023/02/25 03:44:09;;;;;;;0.73;0.73;;;;;;;7.13;90.32;97707.25;5114619;28;20097;-64
2023/02/25 03:46:43;;;;;;;1.00;0.68;;;;;;;7.09;90.23;97704.81;5115724;28;20051;-65
2023/02/25 03:49:21;;;;;;;0.43;0.43;;;;;;;7.06;89.58;97704.84;5115935;28;20051;-64
2023/02/25 03:51:55;;;;;;;0.65;0.65;;;;;;;7.02;89.15;97705.78;5114628;28;20500;-64
2023/02/25 03:54:26;;;;;;;0.55;0.55;;;;;;;7.04;89.46;97701.50;5114669;28;20393;-64
2023/02/25 03:56:55;;;;;;;0.43;0.43;;;;;;;7.04;90.05;97686.28;5114426;28;20051;-64
2023/02/25 03:59:27;;;;;;;0.77;0.77;;;;;;;7.03;89.47;97694.78;5115787;28;20100;-65
2023/02/25 04:01:59;;;;;;;0.95;0.95;;;;;;;6.98;89.86;97696.56;5115517;28;20142;-65
2023/02/25 04:04:29;;;;;;;0.70;0.70;;;;;;;6.97;89.23;97703.34;5115374;28;20096;-64
2023/02/25 04:06:58;;;;;;;1.70;1.60;;;;;;;6.94;89.72;97707.59;5114196;28;20394;-64
2023/02/25 04:09:27;;;;;;;0.57;0.57;;;;;;;6.93;89.44;97713.56;5114065;28;20081;-64
2023/02/25 04:11:55;;;;;;;0.43;0.43;;;;;;;6.94;88.84;97715.22;5114469;28;20460;-65
2023/02/25 04:14:25;;;;;;;2.20;1.70;;;;;;;6.94;88.34;97725.34;5114212;28;20043;-64
2023/02/25 04:16:53;;;;;;;0.88;0.88;;;;;;;6.94;88.82;97731.28;5114183;28;20080;-64
2023/02/25 04:19:22;;;;;;;2.63;1.50;;;;;;;6.94;88.50;97735.50;5114011;28;20052;-65
2023/02/25 04:21:53;;;;;;;0.83;0.83;;;;;;;6.92;88.10;97738.06;5113715;28;20436;-65
2023/02/25 04:24:21;;;;;;;1.15;1.08;;;;;;;6.93;88.40;97744.00;5115036;28;20116;-65
2023/02/25 04:26:57;;;;;;;0.40;0.40;;;;;;;6.89;88.63;97747.41;5114991;28;20081;-65
2023/02/25 04:29:26;;;;;;;1.52;0.77;;;;;;;6.82;87.99;97749.22;5114953;28;20508;-64
2023/02/25 04:31:55;;;;;;;0.30;0.30;;;;;;;6.74;88.00;97748.53;5115081;28;20070;-64
2023/02/25 04:34:23;;;;;;;0.60;0.60;;;;;;;6.65;87.85;97757.13;5115191;28;20043;-64
2023/02/25 04:36:54;;;;;;;0.20;0.20;;;;;;;6.60;87.58;97756.34;5114725;28;20276;-65
2023/02/25 04:39:23;;;;;;;0.98;0.85;;;;;;;6.51;87.79;97751.44;5115604;28;20044;-64
2023/02/25 04:41:51;;;;;;;0.25;0.25;;;;;;;6.43;87.45;97737.22;5114654;28;20094;-65
2023/02/25 04:44:20;;;;;;;0.30;0.30;;;;;;;6.41;87.56;97734.69;5114627;28;20040;-65
2023/02/25 04:46:50;;;;;;;0.90;0.90;;;;;;;6.38;87.23;97729.66;5114547;28;20039;-66
2023/02/25 04:49:21;;;;;;;0.85;0.85;;;;;;;6.42;86.99;97749.06;5114561;28;20044;-64
2023/02/25 04:51:51;;;;;;;0.30;0.30;;;;;;;6.36;87.09;97759.25;5114458;28;20130;-64
2023/02/25 04:54:21;;;;;;;0.32;0.32;;;;;;;6.33;86.49;97754.28;5114894;28;20039;-65
2023/02/25 04:56:50;;;;;;;0.28;0.28;;;;;;;6.34;86.51;97745.78;5114768;28;20059;-64
2023/02/25 04:59:19;;;;;;;0.30;0.30;;;;;;;6.33;86.78;97749.19;5114391;28;20042;-66
2023/02/25 05:01:48;;;;;;;0.70;0.70;;;;;;;6.34;86.70;97750.84;5114297;28;20035;-65
2023/02/25 05:04:17;;;;;;;0.38;0.38;;;;;;;6.32;86.61;97757.66;5114304;28;20035;-66
2023/02/25 05:06:45;;;;;;;1.23;1.13;;;;;;;6.27;86.47;97751.81;5113773;28;20043;-65
2023/02/25 05:09:14;;;;;;;1.15;1.08;;;;;;;6.31;85.72;97763.56;5114249;28;20387;-65
2023/02/25 05:11:45;;;;;;;0.25;0.25;;;;;;;6.31;86.06;97755.16;5114215;28;20074;-65
2023/02/25 05:14:14;;;;;;;0.50;0.50;;;;;;;6.32;85.43;97750.06;5114198;28;20055;-65
2023/02/25 05:16:43;;;;;;;0.40;0.40;;;;;;;6.36;85.91;97755.91;5114083;28;20074;-66
2023/02/25 05:19:16;;;;;;;0.23;0.23;;;;;;;6.34;85.91;97753.38;5114121;28;20549;-66
2023/02/25 05:21:45;;;;;;;0.30;0.30;;;;;;;6.35;85.71;97764.38;5113914;28;20047;-65
2023/02/25 05:24:13;;;;;;;0.45;0.45;;;;;;;6.33;85.54;97744.13;5114393;28;20127;-64
2023/02/25 05:26:42;;;;;;;0.60;0.60;;;;;;;6.28;86.07;97743.38;5113900;28;20039;-66
2023/02/25 05:29:12;;;;;;;0.30;0.30;;;;;;;6.30;85.49;97761.91;5114851;28;20043;-65
2023/02/25 05:31:41;;;;;;;0.80;0.80;;;;;;;6.30;85.40;97761.06;5114056;28;20127;-65
2023/02/25 05:34:10;;;;;;;0.38;0.38;;;;;;;6.21;85.16;97754.44;5113917;28;20055;-65
2023/02/25 05:36:40;;;;;;;0.45;0.45;;;;;;;6.22;85.12;97763.69;5114487;28;20036;-66
2023/02/25 05:39:13;;;;;;;0.40;0.40;;;;;;;6.22;84.91;97768.75;5113943;28;20044;-65
2023/02/25 05:41:42;;;;;;;0.60;0.60;;;;;;;6.25;84.91;97781.41;5113897;28;20054;-65
2023/02/25 05:44:12;;;;;;;1.02;1.02;;;;;;;6.28;84.58;97786.41;5113855;28;20123;-66
2023/02/25 05:46:41;;;;;;;0.38;0.38;;;;;;;6.25;84.50;97789.00;5113793;28;20044;-65
2023/02/25 05:49:10;;;;;;;0.45;0.45;;;;;;;6.25;85.04;97786.47;5113765;28;20062;-65
2023/02/25 05:51:39;;;;;;;1.13;1.02;;;;;;;6.22;84.80;97785.66;5114021;28;20044;-65
2023/02/25 05:54:08;;;;;;;0.47;0.47;;;;;;;6.18;84.31;97796.69;5113679;28;20088;-65
2023/02/25 05:56:37;;;;;;;0.40;0.40;;;;;;;6.21;84.39;97807.63;5113745;28;20097;-65
2023/02/25 05:59:06;;;;;;;0.20;0.20;;;;;;;6.17;84.36;97811.03;5113695;28;20131;-65
2023/02/25 06:01:36;;;;;;;0.60;0.60;;;;;;;6.15;84.30;97822.88;5114277;28;20126;-65
2023/02/25 06:04:05;;;;;;;0.57;0.57;;;;;;;6.17;83.86;97821.16;5113729;28;20047;-66
2023/02/25 06:06:33;;;;;;;0.73;0.67;;;;;;;6.15;83.84;97822.88;5113650;28;20036;-67
2023/02/25 06:09:04;;;;;;;0.50;0.50;;;;;;;6.18;83.83;97822.00;5113634;28;20040;-65
2023/02/25 06:11:34;;;;;;;0.30;0.30;;;;;;;6.21;83.53;97821.97;5114681;28;20171;-66
2023/02/25 06:14:03;;;;;;;0.60;0.60;;;;;;;6.21;83.72;97816.91;5113831;28;20400;-67
2023/02/25 06:16:32;;;;;;;;;;;;;;;6.19;83.11;97819.44;5113968;28;20048;-66
2023/02/25 06:19:02;;;;;;;2.75;1.75;;;;;;;6.18;83.40;97833.00;5117255;28;19919;-66
2023/02/25 06:21:31;;;;;;;0.40;0.40;;;;;;;6.16;83.53;97854.97;5117589;28;20062;-65
2023/02/25 06:24:01;;;;;;;0.30;0.30;;;;;;;6.12;83.77;97853.31;5117621;28;20497;-66
2023/02/25 06:26:34;;;;;;;0.50;0.50;;;;;;;6.09;83.59;97863.50;5117298;28;20101;-66
2023/02/25 06:29:03;;;;;;;0.68;0.68;;;;;;;6.06;83.63;97876.19;5117885;28;20069;-68
2023/02/25 06:31:33;;;;;;;0.50;0.50;;;;;;;6.05;83.63;97877.03;5117174;28;20043;-66
2023/02/25 06:34:04;;;;;;;1.95;0.55;;;;;;;5.95;83.75;97870.44;5117058;28;20481;-65
2023/02/25 06:36:33;;;;;;;0.32;0.32;;;;;;;5.99;83.69;97887.25;5116898;27;20039;-68
2023/02/25 06:39:02;;;;;;;0.40;0.40;;;;;;;6.03;83.48;97893.94;5116940;28;20036;-67
2023/02/25 06:41:31;;;;;;;0.47;0.47;;;;;;;6.01;83.12;97900.72;5117015;28;20040;-66
2023/02/25 06:43:59;;;;;;;0.30;0.30;;;;;;;6.00;82.59;97904.09;5116872;28;20046;-67
2023/02/25 06:46:28;;;;;;;0.57;0.57;;;;;;;6.01;82.07;97904.09;5117320;28;20062;-66
2023/02/25 06:48:57;;;;;;;0.30;0.30;;;;;;;6.01;82.13;97905.78;5116820;28;20054;-67
2023/02/25 06:51:27;;;;;;;0.30;0.30;;;;;;;5.97;81.28;97896.56;5116886;27;20050;-67
2023/02/25 06:53:56;;;;;;;1.05;0.73;;;;;;;5.99;81.00;97900.75;5116756;28;20047;-67
2023/02/25 06:56:25;;;;;;;0.70;0.70;;;;;;;6.00;80.29;97914.22;5116740;28;20540;-67
2023/02/25 06:58:55;;;;;;;0.68;0.65;;;;;;;6.03;80.32;97924.31;5116709;28;20085;-67
2023/02/25 07:01:25;;;;;;;0.30;0.30;;;;;;;6.04;80.07;97926.00;5116531;28;20046;-68
2023/02/25 07:03:54;;;;;;;;;;;;;;;6.06;80.10;97925.13;5117261;28;20048;-67
2023/02/25 07:06:22;;;;;;;1.38;1.02;;;;;;;6.09;80.03;97931.88;5116454;28;19955;-66
2023/02/25 07:08:53;;;;;;;0.28;0.28;;;;;;;6.13;79.92;97945.31;5116785;28;20044;-65
2023/02/25 07:11:32;;;;;;;0.77;0.77;;;;;;;6.07;79.77;97941.16;5116667;28;20048;-67
2023/02/25 07:14:01;;;;;;;0.40;0.40;;;;;;;6.03;79.58;97944.56;5116736;27;20458;-66
2023/02/25 07:16:30;;;;;;;0.30;0.30;;;;;;;6.00;79.54;97949.66;5116650;28;20044;-65
2023/02/25 07:19:00;;;;;;;0.32;0.32;;;;;;;6.00;79.27;97944.59;5115416;28;20798;-66
2023/02/25 07:21:29;;;;;;;1.13;1.13;;;;;;;5.95;79.41;97941.31;5121940;27;20052;-66
2023/02/25 07:24:00;;;;;;;0.38;0.38;;;;;;;5.97;78.83;97930.28;5116158;28;20047;-68
2023/02/25 07:26:30;;;;;;;0.20;0.20;;;;;;;5.98;78.30;97937.03;5116238;28;20071;-66
2023/02/25 07:28:59;;;;;;;0.73;0.73;;;;;;;5.96;78.46;97953.09;5115473;28;20036;-68
2023/02/25 07:31:28;;;;;;;0.30;0.30;;;;;;;5.94;78.17;97954.81;5116000;28;20073;-68
2023/02/25 07:34:02;;;;;;;0.30;0.30;;;;;;;5.90;77.74;97953.16;5115921;28;20052;-66
2023/02/25 07:36:34;;;;;;;1.08;1.08;;;;;;;5.93;76.89;97960.72;5115832;28;20046;-65
2023/02/25 07:39:06;;;;;;;0.30;0.30;;;;;;;5.91;77.27;97957.38;5116026;28;20054;-66
2023/02/25 07:41:36;;;;;;;0.20;0.20;;;;;;;5.97;76.95;97944.66;5116486;28;20082;-66
2023/02/25 07:44:06;;;;;;;0.40;0.40;;;;;;;6.03;76.27;97934.44;5114589;28;20091;-66
2023/02/25 07:46:34;;;;;;;0.43;0.43;;;;;;;6.14;76.07;97931.81;5115626;28;20048;-67
2023/02/25 07:49:03;;;;;;;0.30;0.30;;;;;;;6.34;75.90;97935.78;5116032;28;20036;-67
2023/02/25 07:51:32;;;;;;;0.20;0.20;;;;;;;6.46;75.51;97929.72;5115602;28;20074;-67
2023/02/25 07:54:01;;;;;;;0.30;0.30;;;;;;;6.49;75.17;97924.59;5115497;28;20153;-67
2023/02/25 07:56:32;;;;;;;0.40;0.40;;;;;;;6.39;74.88;97928.97;5115493;28;20122;-67
2023/02/25 07:59:01;;;;;;;0.30;0.30;;;;;;;6.42;74.68;97928.94;5116499;28;20094;-66
2023/02/25 08:01:32;;;;;;;0.40;0.40;;;;;;;6.56;74.17;97929.59;5115328;28;20068;-66
2023/02/25 08:04:05;;;;;;;0.30;0.30;;;;;;;6.60;74.82;97933.75;5115441;28;20054;-67
2023/02/25 08:06:37;;;;;;;0.55;0.55;;;;;;;6.61;74.88;97935.44;5115390;28;20046;-66
2023/02/25 08:09:09;;;;;;;0.50;0.50;;;;;;;6.63;74.99;97948.06;5114519;28;20122;-66
2023/02/25 08:11:41;;;;;;;0.52;0.52;;;;;;;6.64;75.05;97945.53;5111566;28;20085;-66
2023/02/25 08:14:10;;;;;;;0.77;0.77;;;;;;;6.73;74.77;97945.41;5114513;28;20044;-66
2023/02/25 08:16:39;;;;;;;0.30;0.30;;;;;;;6.93;74.87;97935.00;5115100;28;20063;-66
2023/02/25 08:19:08;;;;;;;1.70;1.17;;;;;;;7.01;74.77;97939.94;5114817;28;20280;-66
2023/02/25 08:21:39;;;;;;;0.57;0.52;;;;;;;7.15;75.33;97931.25;5112130;28;20439;-67
2023/02/25 08:24:08;;;;;;;0.50;0.50;;;;;;;7.20;74.73;97931.19;5114657;28;20073;-66
2023/02/25 08:26:37;;;;;;;2.20;1.20;;;;;;;7.22;74.55;97924.41;5112197;28;20048;-67
2023/02/25 08:29:07;;;;;;;0.83;0.83;;;;;;;7.32;74.00;97931.00;5114782;28;20054;-65
2023/02/25 08:31:36;;;;;;;1.20;0.52;;;;;;;7.58;74.40;97923.81;5112280;28;20329;-66
2023/02/25 08:34:06;;;;;;;0.35;0.35;;;;;;;7.66;73.96;97921.94;5114286;27;20146;-68
2023/02/25 08:36:35;;;;;;;0.50;0.50;;;;;;;7.78;73.10;97921.72;5110865;28;20035;-69
2023/02/25 08:39:04;;;;;;;0.30;0.30;;;;;;;7.86;72.67;97932.59;5114352;28;20130;-69
2023/02/25 08:41:33;;;;;;;0.85;0.50;;;;;;;7.77;70.90;97926.84;5113895;28;20031;-66
2023/02/25 08:44:02;;;;;;;0.28;0.28;;;;;;;7.72;71.13;97932.03;5114877;28;20086;-66
2023/02/25 08:46:34;;;;;;;0.30;0.30;;;;;;;7.70;69.89;97933.72;5114631;28;20092;-66
2023/02/25 08:49:04;;;;;;;0.63;0.63;;;;;;;7.64;69.91;97933.84;5113866;28;20043;-67
2023/02/25 08:51:37;;;;;;;0.40;0.40;;;;;;;7.64;68.85;97944.00;5114464;28;20050;-68
2023/02/25 08:54:10;;;;;;;0.77;0.77;;;;;;;7.57;68.79;97936.50;5114396;28;20043;-68
2023/02/25 08:56:43;;;;;;;0.32;0.32;;;;;;;7.32;67.70;97946.22;5114697;28;20512;-68
2023/02/25 08:59:15;;;;;;;0.30;0.30;;;;;;;7.19;67.89;97945.59;5114604;28;20130;-66
2023/02/25 09:01:45;;;;;;;0.30;0.30;;;;;;;7.16;68.58;97954.94;5114176;28;20493;-65
2023/02/25 09:04:16;;;;;;;0.43;0.43;;;;;;;7.08;68.34;97949.97;5114359;28;20546;-66
2023/02/25 09:06:46;;;;;;;2.92;1.70;;;;;;;7.04;68.03;97960.19;5114210;27;20052;-66
2023/02/25 09:09:16;;;;;;;0.40;0.40;;;;;;;7.03;68.08;97959.34;5114866;28;20036;-67
2023/02/25 09:11:45;;;;;;;0.60;0.60;;;;;;;7.07;67.95;97962.69;5114146;28;20043;-66
2023/02/25 09:14:15;;;;;;;0.30;0.30;;;;;;;7.14;68.90;97961.72;5114060;28;20040;-66
2023/02/25 09:16:45;;;;;;;0.40;0.40;;;;;;;7.16;68.98;97965.06;5114066;28;20039;-67
2023/02/25 09:19:16;;;;;;;0.30;0.30;;;;;;;7.13;67.77;97950.75;5114434;28;20383;-65
2023/02/25 09:21:46;;;;;;;0.30;0.30;;;;;;;7.24;67.73;97964.13;5114284;28;20405;-66
2023/02/25 09:24:16;;;;;;;1.13;1.10;;;;;;;7.56;67.02;97965.31;5114023;28;20071;-66
2023/02/25 09:26:45;;;;;;;0.30;0.30;;;;;;;7.74;67.22;97955.66;5114367;28;20040;-66
2023/02/25 09:29:14;;;;;;;0.40;0.40;;;;;;;7.84;67.29;97956.34;5112959;28;20390;-66
2023/02/25 09:31:43;;;;;;;0.40;0.40;;;;;;;7.69;65.81;97967.59;5114255;28;20481;-66
2023/02/25 09:34:14;;;;;;;0.30;0.30;;;;;;;7.65;66.28;97972.75;5114432;28;20036;-65
2023/02/25 09:36:43;;;;;;;0.43;0.43;;;;;;;7.66;65.20;97970.19;5113974;28;20048;-66
2023/02/25 09:39:12;;;;;;;0.43;0.43;;;;;;;7.62;65.21;97960.13;5114071;28;20040;-66
2023/02/25 09:41:49;;;;;;;0.40;0.40;;;;;;;7.57;64.37;97962.72;5114129;28;20272;-66
2023/02/25 09:44:21;;;;;;;0.30;0.30;;;;;;;7.47;64.25;97968.81;5114145;28;20069;-65
2023/02/25 09:46:53;;;;;;;0.30;0.30;;;;;;;7.49;64.37;97953.56;5113886;28;20048;-66
2023/02/25 09:49:30;;;;;;;0.25;0.25;;;;;;;7.44;64.44;97953.63;5113809;28;20048;-66
2023/02/25 09:52:06;;;;;;;0.30;0.30;;;;;;;7.35;63.73;97952.09;5116233;28;20082;-66
2023/02/25 09:54:39;;;;;;;0.30;0.30;;;;;;;7.27;63.76;97968.31;5117880;28;20067;-66
2023/02/25 09:57:17;;;;;;;0.30;0.30;;;;;;;7.24;64.26;97960.75;5117923;28;20058;-66
2023/02/25 09:59:48;;;;;;;0.30;0.30;;;;;;;7.26;64.92;97964.09;5118026;28;20489;-66
2023/02/25 10:02:21;;;;;;;;;;;;;;;7.28;64.65;97965.72;5118184;28;20271;-66
2023/02/25 10:05:16;;;;;;;0.30;0.30;;;;;;;7.35;64.80;97961.41;5117992;28;19923;-65
2023/02/25 10:07:58;;;;;;;0.30;0.30;;;;;;;7.41;63.94;97962.13;5118021;28;20079;-67
2023/02/25 10:10:35;;;;;;;0.40;0.40;;;;;;;7.44;63.36;97957.00;5117690;28;20122;-66
2023/02/25 10:13:18;;;;;;;0.28;0.28;;;;;;;7.52;63.53;97969.59;5117861;28;20047;-66
2023/02/25 10:15:58;;;;;;;0.30;0.30;;;;;;;7.48;63.12;97960.34;5117771;28;20051;-66
2023/02/25 10:18:41;;;;;;;0.40;0.40;;;;;;;7.48;61.93;97967.97;5117793;28;20405;-66
2023/02/25 10:21:23;;;;;;;0.60;0.60;;;;;;;7.43;62.61;97957.88;5117456;28;20501;-67
2023/02/25 10:24:11;;;;;;;0.50;0.50;;;;;;;7.41;62.19;97961.31;5117635;28;20126;-66
2023/02/25 10:26:42;;;;;;;0.40;0.40;;;;;;;7.35;62.53;97956.31;5117225;28;20085;-66
2023/02/25 10:29:16;;;;;;;0.30;0.30;;;;;;;7.29;61.89;97957.25;5117635;27;20055;-66
2023/02/25 10:31:45;;;;;;;0.30;0.30;;;;;;;7.23;61.44;97951.44;5117499;28;20043;-67
2023/02/25 10:34:24;;;;;;;0.30;0.30;;;;;;;7.16;60.96;97954.94;5117355;28;20441;-66
2023/02/25 10:36:58;;;;;;;0.30;0.30;;;;;;;7.19;61.07;97949.81;5117419;28;20075;-66
2023/02/25 10:39:30;;;;;;;0.20;0.20;;;;;;;7.21;61.30;97943.00;5117877;28;20396;-66
2023/02/25 10:41:59;;;;;;;0.60;0.60;;;;;;;7.26;61.81;97939.56;5117082;28;20048;-66
2023/02/25 10:44:27;;;;;;;0.40;0.40;;;;;;;7.24;61.93;97938.75;5117204;28;20135;-66
2023/02/25 10:47:02;;;;;;;0.28;0.28;;;;;;;7.26;61.47;97941.25;5117551;28;20393;-66
2023/02/25 10:49:36;;;;;;;0.20;0.20;;;;;;;7.31;61.25;97939.47;5116832;28;20050;-66
2023/02/25 10:52:14;;;;;;;0.30;0.30;;;;;;;7.33;61.81;97938.59;5116747;27;20050;-66
2023/02/25 10:54:49;;;;;;;1.02;0.93;;;;;;;7.31;61.66;97935.25;5116803;28;20100;-66
2023/02/25 10:57:24;;;;;;;0.20;0.20;;;;;;;7.32;61.81;97933.53;5116683;28;20496;-66
2023/02/25 11:00:02;;;;;;;0.30;0.30;;;;;;;7.36;61.91;97932.63;5117299;28;20131;-66
2023/02/25 11:02:38;;;;;;;0.30;0.30;;;;;;;7.42;61.71;97927.44;5116098;28;20449;-66
2023/02/25 11:05:27;;;;;;;1.00;0.55;;;;;;;7.42;61.03;97924.91;5117065;28;20039;-66
2023/02/25 11:07:57;;;;;;;;;;;;;;;7.46;61.24;97924.00;5116922;28;20048;-65
2023/02/25 11:10:26;;;;;;;0.30;0.30;;;;;;;7.50;60.57;97924.78;5116685;28;20011;-66
2023/02/25 11:12:58;;;;;;;0.33;0.33;;;;;;;7.59;59.89;97924.63;5116750;28;20043;-66
2023/02/25 11:15:34;;;;;;;0.32;0.32;;;;;;;7.71;59.98;97914.25;5116325;28;20089;-66
2023/02/25 11:18:22;;;;;;;0.60;0.60;;;;;;;7.85;60.73;97915.69;5116351;28;20052;-67
2023/02/25 11:20:55;;;;;;;0.20;0.20;;;;;;;7.90;60.68;97913.91;5116210;28;20059;-67
2023/02/25 11:23:38;;;;;;;0.30;0.30;;;;;;;7.88;60.02;97908.00;5116257;28;20470;-66
2023/02/25 11:26:08;;;;;;;0.40;0.40;;;;;;;7.88;60.30;97902.94;5116727;28;20481;-66
2023/02/25 11:28:39;;;;;;;;;;;;;;;7.81;60.14;97911.53;5116455;28;20043;-66
2023/02/25 11:31:13;;;;;;;0.20;0.20;;;;;;;7.72;59.21;97901.56;5116175;28;19920;-66
2023/02/25 11:33:49;;;;;;;0.30;0.30;;;;;;;7.64;59.43;97905.91;5115993;28;20050;-66
2023/02/25 11:36:22;;;;;;;0.50;0.50;;;;;;;7.64;59.11;97903.38;5115946;28;20043;-67
2023/02/25 11:39:13;;;;;;;0.35;0.35;;;;;;;7.63;59.59;97905.97;5116213;28;20070;-67
2023/02/25 11:41:44;;;;;;;0.28;0.28;;;;;;;7.55;59.73;97908.63;5116397;28;20055;-67
2023/02/25 11:44:27;;;;;;;0.25;0.25;;;;;;;7.45;59.57;97912.19;5116105;28;20516;-66
2023/02/25 11:47:01;;;;;;;0.20;0.20;;;;;;;7.37;58.95;97909.75;5116027;28;20500;-66
2023/02/25 11:49:49;;;;;;;1.45;0.68;;;;;;;7.35;58.38;97906.41;5116238;28;20051;-66
2023/02/25 11:52:25;;;;;;;0.30;0.30;;;;;;;7.38;59.16;97905.53;5115942;28;20051;-65
2023/02/25 11:55:11;;;;;;;0.20;0.20;;;;;;;7.38;58.35;97903.00;5115896;28;20062;-66
2023/02/25 11:57:57;;;;;;;0.40;0.40;;;;;;;7.40;57.98;97908.88;5115807;28;20389;-65
2023/02/25 12:00:32;;;;;;;0.98;0.70;;;;;;;7.46;57.66;97910.47;5115473;28;20044;-67
2023/02/25 12:03:15;;;;;;;0.47;0.47;;;;;;;7.44;58.11;97911.34;5115797;28;20062;-66
2023/02/25 12:05:52;;;;;;;0.20;0.20;;;;;;;7.42;57.96;97910.53;5115732;28;20516;-66
2023/02/25 12:08:39;;;;;;;1.77;0.82;;;;;;;7.43;57.65;97913.91;5115287;28;20117;-66